Time;durP1;ratioP1;P1;durP2;ratioP2;P2;SDS_P1;SDS_P2;PMS_P1;PMS_P2;Temp;Humidity;BMP_temperature;BMP_pressure;BME280_temperature;BME280_humidity;BME280_pressure;Samples;Min_cycle;Max_cycle;Signal;HPM_P1;HPM_P2
2023/09/07 00:00:44;;;;;;;;;;;;;;;;;;5111876;28;19908;-72
2023/09/07 00:03:10;;;;;;;;;;;;;;;;;;5112571;28;19991;-72
2023/09/07 00:05:35;;;;;;;;;;;;;;;;;;5094045;28;20010;-72
2023/09/07 00:08:02;;;;;;;;;;;;;;;;;;5112785;28;20428;-72
2023/09/07 00:10:28;;;;;;;;;;;;;;;;;;5112008;28;19911;-72
2023/09/07 00:12:54;;;;;;;;;;;;;;;;;;5093499;28;19907;-73
2023/09/07 00:15:21;;;;;;;;;;;;;;;;;;5112575;28;19912;-72
2023/09/07 00:17:47;;;;;;;;;;;;;;;;;;5112008;28;20274;-72
2023/09/07 00:20:15;;;;;;;;;;;;;;;;;;5112083;28;19990;-72
2023/09/07 00:22:41;;;;;;;;;;;;;;;;;;5111569;28;19911;-72
2023/09/07 00:25:07;;;;;;;;;;;;;;;;;;5111581;28;19963;-72
2023/09/07 00:27:34;;;;;;;;;;;;;;;;;;5111871;28;20366;-72
2023/09/07 00:30:00;;;;;;;;;;;;;;;;;;5111578;28;19914;-73
2023/09/07 00:32:27;;;;;;;;;;;;;;;;;;5111619;28;19939;-72
2023/09/07 00:34:53;;;;;;;;;;;;;;;;;;5111236;28;19912;-73
2023/09/07 00:37:18;;;;;;;;;;;;;;;;;;5111843;28;19950;-72
2023/09/07 00:39:44;;;;;;;;;;;;;;;;;;5111563;28;20000;-72
2023/09/07 00:42:10;;;;;;;;;;;;;;;;;;5112240;28;20392;-72
2023/09/07 00:44:36;;;;;;;;;;;;;;;;;;5111605;28;19967;-71
2023/09/07 00:47:02;;;;;;;;;;;;;;;;;;5111938;28;20033;-73
2023/09/07 00:49:28;;;;;;;;;;;;;;;;;;5112324;28;19911;-73
2023/09/07 00:51:54;;;;;;;;;;;;;;;;;;5112130;28;20008;-74
2023/09/07 00:54:20;;;;;;;;;;;;;;;;;;5113100;28;19918;-73
2023/09/07 00:56:46;;;;;;;;;;;;;;;;;;5112857;28;19908;-74
2023/09/07 00:59:12;;;;;;;;;;;;;;;;;;5112910;28;20005;-74
2023/09/07 01:01:38;;;;;;;;;;;;;;;;;;5112415;28;20417;-74
2023/09/07 01:04:04;;;;;;;;;;;;;;;;;;5112278;28;20014;-74
2023/09/07 01:06:30;;;;;;;;;;;;;;;;;;5113152;28;20470;-73
2023/09/07 01:08:56;;;;;;;;;;;;;;;;;;5115233;28;20460;-74
2023/09/07 01:11:22;;;;;;;;;;;;;;;;;;5116121;28;19908;-74
2023/09/07 01:13:48;;;;;;;;;;;;;;;;;;5097127;28;20418;-73
2023/09/07 01:16:14;;;;;;;;;;;;;;;;;;5114835;28;19908;-72
2023/09/07 01:18:40;;;;;;;;;;;;;;;;;;5116010;28;19934;-72
2023/09/07 01:21:07;;;;;;;;;;;;;;;;;;5117642;28;19907;-73
2023/09/07 01:23:33;;;;;;;;;;;;;;;;;;5116108;28;19920;-72
2023/09/07 01:25:59;;;;;;;;;;;;;;;;;;5115959;28;19916;-72
2023/09/07 01:28:25;;;;;;;;;;;;;;;;;;5116747;28;19956;-72
2023/09/07 01:30:51;;;;;;;;;;;;;;;;;;5116991;28;19908;-72
2023/09/07 01:33:17;;;;;;;;;;;;;;;;;;5119252;28;19911;-73
2023/09/07 01:35:43;;;;;;;;;;;;;;;;;;5117996;28;19918;-72
2023/09/07 01:38:09;;;;;;;;;;;;;;;;;;5117075;28;19986;-72
2023/09/07 01:40:35;;;;;;;;;;;;;;;;;;5116317;28;19994;-72
2023/09/07 01:43:01;;;;;;;;;;;;;;;;;;5112286;28;19938;-72
2023/09/07 01:45:27;;;;;;;;;;;;;;;;;;5110615;28;19963;-73
2023/09/07 01:47:53;;;;;;;;;;;;;;;;;;5111606;28;19954;-72
2023/09/07 01:50:19;;;;;;;;;;;;;;;;;;5110685;28;19947;-72
2023/09/07 01:52:45;;;;;;;;;;;;;;;;;;5110326;28;20356;-73
2023/09/07 01:55:11;;;;;;;;;;;;;;;;;;5110116;28;19912;-72
2023/09/07 01:57:37;;;;;;;;;;;;;;;;;;5110507;28;19914;-72
2023/09/07 02:00:04;;;;;;;;;;;;;;;;;;5110044;28;19912;-72
2023/09/07 02:02:30;;;;;;;;;;;;;;;;;;5109984;28;19947;-73
2023/09/07 02:04:56;;;;;;;;;;;;;;;;;;5092338;28;19970;-72
2023/09/07 02:07:22;;;;;;;;;;;;;;;;;;5110039;28;19911;-72
2023/09/07 02:09:48;;;;;;;;;;;;;;;;;;5109962;28;19955;-72
2023/09/07 02:12:14;;;;;;;;;;;;;;;;;;5110039;28;19947;-72
2023/09/07 02:14:40;;;;;;;;;;;;;;;;;;5091558;28;19947;-72
2023/09/07 02:17:06;;;;;;;;;;;;;;;;;;5110543;28;20353;-72
2023/09/07 02:19:32;;;;;;;;;;;;;;;;;;5110171;28;19908;-72
2023/09/07 02:21:58;;;;;;;;;;;;;;;;;;5109575;28;19973;-72
2023/09/07 02:24:24;;;;;;;;;;;;;;;;;;5109683;28;19973;-72
2023/09/07 02:26:50;;;;;;;;;;;;;;;;;;5109926;28;19986;-72
2023/09/07 02:29:16;;;;;;;;;;;;;;;;;;5109718;28;19964;-72
2023/09/07 02:31:42;;;;;;;;;;;;;;;;;;5110239;28;19998;-72
2023/09/07 02:34:09;;;;;;;;;;;;;;;;;;5109806;28;19947;-73
2023/09/07 02:36:35;;;;;;;;;;;;;;;;;;5109862;28;19973;-72
2023/09/07 02:39:01;;;;;;;;;;;;;;;;;;5110165;28;19999;-73
2023/09/07 02:41:27;;;;;;;;;;;;;;;;;;5109599;28;19966;-72
2023/09/07 02:43:53;;;;;;;;;;;;;;;;;;5110022;28;20450;-72
2023/09/07 02:46:19;;;;;;;;;;;;;;;;;;5112171;28;19912;-72
2023/09/07 02:48:45;;;;;;;;;;;;;;;;;;5113362;28;19948;-72
2023/09/07 02:51:11;;;;;;;;;;;;;;;;;;5113788;28;20416;-72
2023/09/07 02:53:37;;;;;;;;;;;;;;;;;;5113929;28;19914;-72
2023/09/07 02:56:04;;;;;;;;;;;;;;;;;;5113955;28;19914;-72
2023/09/07 02:58:31;;;;;;;;;;;;;;;;;;5095235;28;19908;-72
2023/09/07 03:00:57;;;;;;;;;;;;;;;;;;5095367;28;20006;-72
2023/09/07 03:03:23;;;;;;;;;;;;;;;;;;5113272;28;19908;-72
2023/09/07 03:05:49;;;;;;;;;;;;;;;;;;5113658;28;20002;-72
2023/09/07 03:08:15;;;;;;;;;;;;;;;;;;5113017;28;20480;-72
2023/09/07 03:10:42;;;;;;;;;;;;;;;;;;5113752;28;20405;-72
2023/09/07 03:13:08;;;;;;;;;;;;;;;;;;5113176;28;19908;-72
2023/09/07 03:15:34;;;;;;;;;;;;;;;;;;5113625;28;20364;-72
2023/09/07 03:18:01;;;;;;;;;;;;;;;;;;5113261;28;19959;-72
2023/09/07 03:20:27;;;;;;;;;;;;;;;;;;5095042;28;19965;-72
2023/09/07 03:22:53;;;;;;;;;;;;;;;;;;5113510;28;19926;-72
2023/09/07 03:25:19;;;;;;;;;;;;;;;;;;5113177;28;19969;-71
2023/09/07 03:27:45;;;;;;;;;;;;;;;;;;5113073;28;19971;-72
2023/09/07 03:30:11;;;;;;;;;;;;;;;;;;5112449;28;19927;-71
2023/09/07 03:32:37;;;;;;;;;;;;;;;;;;5113114;28;19951;-71
2023/09/07 03:35:04;;;;;;;;;;;;;;;;;;5112720;28;19966;-71
2023/09/07 03:37:30;;;;;;;;;;;;;;;;;;5112579;28;20334;-72
2023/09/07 03:39:56;;;;;;;;;;;;;;;;;;5113231;28;19930;-72
2023/09/07 03:42:22;;;;;;;;;;;;;;;;;;5113652;28;19947;-72
2023/09/07 03:44:48;;;;;;;;;;;;;;;;;;5095421;28;19951;-72
2023/09/07 03:47:14;;;;;;;;;;;;;;;;;;5095389;28;19947;-71
2023/09/07 03:49:40;;;;;;;;;;;;;;;;;;5113724;28;19930;-72
2023/09/07 03:52:06;;;;;;;;;;;;;;;;;;5113298;28;19939;-71
2023/09/07 03:54:32;;;;;;;;;;;;;;;;;;5095010;28;20408;-72
2023/09/07 03:56:57;;;;;;;;;;;;;;;;;;5113236;28;19947;-72
2023/09/07 03:59:23;;;;;;;;;;;;;;;;;;5113799;28;19958;-71
2023/09/07 04:01:50;;;;;;;;;;;;;;;;;;5113453;28;19907;-71
2023/09/07 04:04:16;;;;;;;;;;;;;;;;;;5113531;28;19934;-72
2023/09/07 04:06:42;;;;;;;;;;;;;;;;;;5113184;28;20337;-71
2023/09/07 04:09:08;;;;;;;;;;;;;;;;;;5113779;28;19907;-72
2023/09/07 04:11:33;;;;;;;;;;;;;;;;;;5112980;28;20376;-71
2023/09/07 04:14:00;;;;;;;;;;;;;;;;;;5113008;28;20050;-72
2023/09/07 04:16:25;;;;;;;;;;;;;;;;;;5113214;28;19908;-71
2023/09/07 04:18:51;;;;;;;;;;;;;;;;;;5113508;28;20367;-71
2023/09/07 04:21:17;;;;;;;;;;;;;;;;;;5113374;28;20397;-71
2023/09/07 04:23:43;;;;;;;;;;;;;;;;;;5112945;28;19962;-71
2023/09/07 04:26:09;;;;;;;;;;;;;;;;;;5112527;28;19911;-71
2023/09/07 04:28:35;;;;;;;;;;;;;;;;;;5112954;28;19915;-72
2023/09/07 04:31:01;;;;;;;;;;;;;;;;;;5112762;28;19969;-71
2023/09/07 04:33:27;;;;;;;;;;;;;;;;;;5113148;28;20025;-73
2023/09/07 04:35:53;;;;;;;;;;;;;;;;;;5113030;28;19908;-73
2023/09/07 04:38:19;;;;;;;;;;;;;;;;;;5112617;28;19912;-73
2023/09/07 04:40:45;;;;;;;;;;;;;;;;;;5113085;28;19966;-72
2023/09/07 04:43:11;;;;;;;;;;;;;;;;;;5112765;28;19955;-72
2023/09/07 04:45:37;;;;;;;;;;;;;;;;;;5112766;28;19963;-72
2023/09/07 04:48:03;;;;;;;;;;;;;;;;;;5112645;28;19955;-72
2023/09/07 04:50:29;;;;;;;;;;;;;;;;;;5112964;28;19912;-72
2023/09/07 04:52:55;;;;;;;;;;;;;;;;;;5112299;28;19908;-72
2023/09/07 04:55:21;;;;;;;;;;;;;;;;;;5112458;28;19915;-72
2023/09/07 04:57:47;;;;;;;;;;;;;;;;;;5112266;28;19908;-72
2023/09/07 05:00:13;;;;;;;;;;;;;;;;;;5112339;28;19915;-72
2023/09/07 05:02:42;;;;;;;;;;;;;;;;;;5112289;28;20069;-71
2023/09/07 05:05:08;;;;;;;;;;;;;;;;;;5111840;28;19922;-72
2023/09/07 05:07:34;;;;;;;;;;;;;;;;;;5111914;28;19979;-74
2023/09/07 05:10:00;;;;;;;;;;;;;;;;;;5111909;28;20043;-72
2023/09/07 05:12:26;;;;;;;;;;;;;;;;;;5111652;28;20979;-73
2023/09/07 05:14:52;;;;;;;;;;;;;;;;;;5112280;28;20338;-73
2023/09/07 05:17:18;;;;;;;;;;;;;;;;;;5112178;28;19908;-72
2023/09/07 05:19:44;;;;;;;;;;;;;;;;;;5112212;28;19998;-72
2023/09/07 05:22:11;;;;;;;;;;;;;;;;;;5111910;28;19986;-71
2023/09/07 05:24:37;;;;;;;;;;;;;;;;;;5111759;28;19920;-71
2023/09/07 05:27:03;;;;;;;;;;;;;;;;;;5111708;28;19998;-71
2023/09/07 05:29:29;;;;;;;;;;;;;;;;;;5111604;28;19990;-71
2023/09/07 05:31:55;;;;;;;;;;;;;;;;;;5110392;28;19995;-71
2023/09/07 05:34:21;;;;;;;;;;;;;;;;;;5109804;28;19912;-72
2023/09/07 05:36:47;;;;;;;;;;;;;;;;;;5110045;28;19954;-71
2023/09/07 05:39:13;;;;;;;;;;;;;;;;;;5110040;28;19908;-71
2023/09/07 05:41:39;;;;;;;;;;;;;;;;;;5109754;28;19970;-71
2023/09/07 05:44:05;;;;;;;;;;;;;;;;;;5091044;28;20381;-71
2023/09/07 05:46:31;;;;;;;;;;;;;;;;;;5105633;28;19962;-71
2023/09/07 05:48:57;;;;;;;;;;;;;;;;;;5090977;28;19956;-71
2023/09/07 05:51:23;;;;;;;;;;;;;;;;;;5091009;28;19963;-71
2023/09/07 05:53:49;;;;;;;;;;;;;;;;;;5091198;28;19948;-71
2023/09/07 05:56:15;;;;;;;;;;;;;;;;;;5090721;28;19904;-71
2023/09/07 05:58:41;;;;;;;;;;;;;;;;;;5091107;28;19915;-71
2023/09/07 06:01:07;;;;;;;;;;;;;;;;;;5090722;28;20312;-72
2023/09/07 06:03:34;;;;;;;;;;;;;;;;;;5089917;28;19961;-71
2023/09/07 06:06:00;;;;;;;;;;;;;;;;;;5088797;28;20482;-71
2023/09/07 06:08:26;;;;;;;;;;;;;;;;;;5088737;28;19969;-71
2023/09/07 06:10:52;;;;;;;;;;;;;;;;;;5089049;28;20878;-71
2023/09/07 06:13:18;;;;;;;;;;;;;;;;;;5088608;28;19947;-71
2023/09/07 06:15:44;;;;;;;;;;;;;;;;;;5088644;28;20355;-71
2023/09/07 06:18:10;;;;;;;;;;;;;;;;;;5088539;28;20020;-71
2023/09/07 06:20:36;;;;;;;;;;;;;;;;;;5090228;28;19949;-70
2023/09/07 06:23:02;;;;;;;;;;;;;;;;;;5090175;28;19940;-70
2023/09/07 06:25:28;;;;;;;;;;;;;;;;;;5071966;28;19971;-71
2023/09/07 06:27:54;;;;;;;;;;;;;;;;;;5090706;28;19908;-71
2023/09/07 06:30:20;;;;;;;;;;;;;;;;;;5090923;28;19999;-70
2023/09/07 06:32:47;;;;;;;;;;;;;;;;;;5090515;28;19962;-71
2023/09/07 06:35:13;;;;;;;;;;;;;;;;;;5090963;28;19962;-71
2023/09/07 06:37:41;;;;;;;;;;;;;;;;;;5090160;28;20016;-71
2023/09/07 06:40:08;;;;;;;;;;;;;;;;;;5091288;28;19908;-71
2023/09/07 06:42:34;;;;;;;;;;;;;;;;;;5090858;28;19951;-70
2023/09/07 06:45:00;;;;;;;;;;;;;;;;;;5090596;28;20353;-71
2023/09/07 06:47:26;;;;;;;;;;;;;;;;;;5090639;28;19944;-70
2023/09/07 06:49:52;;;;;;;;;;;;;;;;;;5090589;28;19997;-70
2023/09/07 06:52:18;;;;;;;;;;;;;;;;;;5090202;28;19978;-70
2023/09/07 06:54:43;;;;;;;;;;;;;;;;;;5089970;28;19944;-70
2023/09/07 06:57:09;;;;;;;;;;;;;;;;;;5090857;28;20214;-70
2023/09/07 06:59:35;;;;;;;;;;;;;;;;;;5090559;28;20448;-70
2023/09/07 07:02:04;;;;;;;;;;;;;;;;;;5090413;28;19966;-70
2023/09/07 07:04:30;;;;;;;;;;;;;;;;;;5090123;28;20370;-70
2023/09/07 07:06:56;;;;;;;;;;;;;;;;;;5090111;28;19908;-70
2023/09/07 07:09:22;;;;;;;;;;;;;;;;;;5090008;28;19908;-69
2023/09/07 07:11:49;;;;;;;;;;;;;;;;;;5090563;28;19908;-70
2023/09/07 07:14:15;;;;;;;;;;;;;;;;;;5090395;28;19908;-71
2023/09/07 07:16:41;;;;;;;;;;;;;;;;;;5090577;28;19911;-70
2023/09/07 07:19:07;;;;;;;;;;;;;;;;;;5090359;28;19916;-71
2023/09/07 07:21:32;;;;;;;;;;;;;;;;;;5089492;28;19956;-71
2023/09/07 07:23:58;;;;;;;;;;;;;;;;;;5090046;28;19967;-71
2023/09/07 07:26:24;;;;;;;;;;;;;;;;;;5090054;28;20420;-71
2023/09/07 07:28:50;;;;;;;;;;;;;;;;;;5090533;28;19974;-71
2023/09/07 07:31:16;;;;;;;;;;;;;;;;;;5090053;28;19959;-69
2023/09/07 07:33:42;;;;;;;;;;;;;;;;;;5093945;28;19951;-71
2023/09/07 07:36:08;;;;;;;;;;;;;;;;;;5093326;28;20388;-70
2023/09/07 07:38:35;;;;;;;;;;;;;;;;;;5092772;28;19998;-71
2023/09/07 07:41:01;;;;;;;;;;;;;;;;;;5092586;28;20365;-70
2023/09/07 07:43:27;;;;;;;;;;;;;;;;;;5092620;28;20000;-70
2023/09/07 07:45:53;;;;;;;;;;;;;;;;;;5092208;28;19996;-71
2023/09/07 07:48:20;;;;;;;;;;;;;;;;;;5092626;28;19915;-70
2023/09/07 07:50:46;;;;;;;;;;;;;;;;;;5093042;28;19912;-70
2023/09/07 07:53:12;;;;;;;;;;;;;;;;;;5091655;28;19943;-70
2023/09/07 07:55:38;;;;;;;;;;;;;;;;;;5093342;28;19930;-70
2023/09/07 07:58:04;;;;;;;;;;;;;;;;;;5092905;28;19916;-69
2023/09/07 08:00:31;;;;;;;;;;;;;;;;;;5092196;28;19908;-71
2023/09/07 08:02:57;;;;;;;;;;;;;;;;;;5092350;28;19941;-70
2023/09/07 08:05:22;;;;;;;;;;;;;;;;;;5091826;28;20362;-70
2023/09/07 08:07:48;;;;;;;;;;;;;;;;;;5092213;28;19950;-69
2023/09/07 08:10:14;;;;;;;;;;;;;;;;;;5092020;28;19955;-70
2023/09/07 08:12:41;;;;;;;;;;;;;;;;;;5091937;28;20233;-70
2023/09/07 08:15:07;;;;;;;;;;;;;;;;;;5091931;28;19908;-69
2023/09/07 08:17:33;;;;;;;;;;;;;;;;;;5091876;28;20000;-70
2023/09/07 08:19:59;;;;;;;;;;;;;;;;;;5092093;28;20007;-69
2023/09/07 08:22:27;;;;;;;;;;;;;;;;;;5091329;28;19950;-70
2023/09/07 08:24:54;;;;;;;;;;;;;;;;;;5091603;28;19929;-69
2023/09/07 08:27:21;;;;;;;;;;;;;;;;;;5091320;28;19985;-70
2023/09/07 08:29:48;;;;;;;;;;;;;;;;;;5091915;28;19915;-68
2023/09/07 08:32:14;;;;;;;;;;;;;;;;;;5092197;28;20336;-69
2023/09/07 08:34:41;;;;;;;;;;;;;;;;;;5091571;28;20000;-69
2023/09/07 08:37:10;;;;;;;;;;;;;;;;;;5091727;28;19908;-70
2023/09/07 08:39:36;;;;;;;;;;;;;;;;;;5092070;28;19908;-70
2023/09/07 08:42:02;;;;;;;;;;;;;;;;;;5091963;28;19918;-70
2023/09/07 08:44:28;;;;;;;;;;;;;;;;;;5093131;28;19950;-70
2023/09/07 08:46:54;;;;;;;;;;;;;;;;;;5093397;28;19916;-70
2023/09/07 08:49:20;;;;;;;;;;;;;;;;;;5093059;28;19974;-71
2023/09/07 08:51:46;;;;;;;;;;;;;;;;;;5092769;28;19951;-70
2023/09/07 08:54:12;;;;;;;;;;;;;;;;;;5094019;28;19908;-70
2023/09/07 08:56:38;;;;;;;;;;;;;;;;;;5074434;28;19967;-70
2023/09/07 08:59:04;;;;;;;;;;;;;;;;;;5093390;28;19908;-69
2023/09/07 09:01:31;;;;;;;;;;;;;;;;;;5096414;28;20680;-70
2023/09/07 09:03:57;;;;;;;;;;;;;;;;;;5095214;28;19908;-70
2023/09/07 09:06:23;;;;;;;;;;;;;;;;;;5096724;28;19917;-70
2023/09/07 09:08:49;;;;;;;;;;;;;;;;;;5098176;28;19908;-68
2023/09/07 09:11:15;;;;;;;;;;;;;;;;;;5080305;28;19931;-69
2023/09/07 09:13:41;;;;;;;;;;;;;;;;;;5099507;28;19908;-70
2023/09/07 09:16:07;;;;;;;;;;;;;;;;;;5099824;28;20362;-69
2023/09/07 09:18:33;;;;;;;;;;;;;;;;;;5096003;28;19995;-70
2023/09/07 09:20:59;;;;;;;;;;;;;;;;;;5091445;28;20433;-68
2023/09/07 09:23:25;;;;;;;;;;;;;;;;;;5092715;28;19947;-69
2023/09/07 09:25:51;;;;;;;;;;;;;;;;;;5091995;28;19967;-70
2023/09/07 09:28:17;;;;;;;;;;;;;;;;;;5091841;28;20018;-69
2023/09/07 09:30:43;;;;;;;;;;;;;;;;;;5091236;28;19955;-68
2023/09/07 09:33:09;;;;;;;;;;;;;;;;;;5091200;28;19955;-67
2023/09/07 09:35:35;;;;;;;;;;;;;;;;;;5090952;28;20595;-69
2023/09/07 09:38:04;;;;;;;;;;;;;;;;;;5091034;28;19912;-68
2023/09/07 09:40:30;;;;;;;;;;;;;;;;;;5090937;28;19908;-68
2023/09/07 09:42:55;;;;;;;;;;;;;;;;;;5090759;28;20045;-70
2023/09/07 09:45:22;;;;;;;;;;;;;;;;;;5091174;28;19970;-69
2023/09/07 09:47:48;;;;;;;;;;;;;;;;;;5091000;28;19908;-68
2023/09/07 09:50:14;;;;;;;;;;;;;;;;;;5090827;28;20320;-69
2023/09/07 09:52:40;;;;;;;;;;;;;;;;;;5091078;28;19956;-68
2023/09/07 09:55:07;;;;;;;;;;;;;;;;;;5089726;28;20380;-69
2023/09/07 09:57:34;;;;;;;;;;;;;;;;;;5091080;28;19968;-69
2023/09/07 10:00:06;;;;;;;;;;;;;;;;;;5091319;28;20439;-69
2023/09/07 10:02:32;;;;;;;;;;;;;;;;;;5090664;28;19915;-71
2023/09/07 10:04:58;;;;;;;;;;;;;;;;;;5090814;28;19916;-67
2023/09/07 10:07:25;;;;;;;;;;;;;;;;;;5090394;28;19908;-70
2023/09/07 10:09:51;;;;;;;;;;;;;;;;;;5090880;28;19938;-69
2023/09/07 10:12:17;;;;;;;;;;;;;;;;;;5090642;28;19995;-70
2023/09/07 10:14:45;;;;;;;;;;;;;;;;;;5090130;28;19912;-69
2023/09/07 10:17:11;;;;;;;;;;;;;;;;;;5090413;28;19912;-68
2023/09/07 10:19:39;;;;;;;;;;;;;;;;;;5090274;28;20277;-68
2023/09/07 10:22:05;;;;;;;;;;;;;;;;;;5090402;28;19977;-68
2023/09/07 10:24:35;;;;;;;;;;;;;;;;;;5090549;28;19963;-68
2023/09/07 10:27:02;;;;;;;;;;;;;;;;;;5090214;28;19971;-68
2023/09/07 10:29:28;;;;;;;;;;;;;;;;;;5089959;28;19951;-68
2023/09/07 10:31:53;;;;;;;;;;;;;;;;;;5089440;28;20397;-69
2023/09/07 10:34:20;;;;;;;;;;;;;;;;;;5088830;28;20025;-69
2023/09/07 10:36:46;;;;;;;;;;;;;;;;;;5071485;28;20426;-69
2023/09/07 10:39:12;;;;;;;;;;;;;;;;;;5089350;28;19908;-69
2023/09/07 10:41:38;;;;;;;;;;;;;;;;;;5089517;28;20049;-70
2023/09/07 10:44:06;;;;;;;;;;;;;;;;;;5089177;28;19959;-70
2023/09/07 10:46:32;;;;;;;;;;;;;;;;;;5089493;28;19914;-70
2023/09/07 10:48:58;;;;;;;;;;;;;;;;;;5089420;28;20003;-69
2023/09/07 10:51:24;;;;;;;;;;;;;;;;;;5089312;28;20002;-67
2023/09/07 10:53:50;;;;;;;;;;;;;;;;;;5088952;28;20390;-69
2023/09/07 10:56:16;;;;;;;;;;;;;;;;;;5089484;28;19954;-68
2023/09/07 10:58:43;;;;;;;;;;;;;;;;;;5088977;28;19967;-69
2023/09/07 11:01:09;;;;;;;;;;;;;;;;;;5089006;28;19957;-69
2023/09/07 11:03:38;;;;;;;;;;;;;;;;;;5089268;28;20662;-69
2023/09/07 11:06:04;;;;;;;;;;;;;;;;;;5089316;28;19960;-69
2023/09/07 11:08:30;;;;;;;;;;;;;;;;;;5092677;28;20445;-70
2023/09/07 11:10:56;;;;;;;;;;;;;;;;;;5093315;28;19922;-70
2023/09/07 11:13:22;;;;;;;;;;;;;;;;;;5092301;28;19987;-70
2023/09/07 11:15:49;;;;;;;;;;;;;;;;;;5093131;28;19908;-70
2023/09/07 11:18:15;;;;;;;;;;;;;;;;;;5092918;28;20023;-70
2023/09/07 11:20:41;;;;;;;;;;;;;;;;;;5092647;28;19912;-69
2023/09/07 11:23:07;;;;;;;;;;;;;;;;;;5093428;28;19974;-70
2023/09/07 11:25:33;;;;;;;;;;;;;;;;;;5093162;28;20442;-68
2023/09/07 11:27:58;;;;;;;;;;;;;;;;;;5092502;28;19908;-69
2023/09/07 11:30:24;;;;;;;;;;;;;;;;;;5092636;28;20049;-70
2023/09/07 11:32:50;;;;;;;;;;;;;;;;;;5092647;28;19943;-70
2023/09/07 11:35:16;;;;;;;;;;;;;;;;;;5092650;28;19966;-69
2023/09/07 11:37:42;;;;;;;;;;;;;;;;;;5092303;28;19947;-69
2023/09/07 11:40:12;;;;;;;;;;;;;;;;;;5092408;28;19966;-70
2023/09/07 11:42:38;;;;;;;;;;;;;;;;;;5092231;28;19912;-68
2023/09/07 11:45:04;;;;;;;;;;;;;;;;;;5092449;28;19916;-70
2023/09/07 11:47:30;;;;;;;;;;;;;;;;;;5092432;28;19912;-70
2023/09/07 11:49:56;;;;;;;;;;;;;;;;;;5092860;28;20066;-70
2023/09/07 11:52:21;;;;;;;;;;;;;;;;;;5093124;28;20363;-70
2023/09/07 11:54:47;;;;;;;;;;;;;;;;;;5092276;28;19951;-69
2023/09/07 11:57:15;;;;;;;;;;;;;;;;;;5092059;28;19908;-70
2023/09/07 11:59:41;;;;;;;;;;;;;;;;;;5092826;28;19957;-70
2023/09/07 12:02:10;;;;;;;;;;;;;;;;;;5092237;28;19951;-70
2023/09/07 12:04:37;;;;;;;;;;;;;;;;;;5092556;28;19963;-70
2023/09/07 12:07:03;;;;;;;;;;;;;;;;;;5091895;28;19908;-70
2023/09/07 12:09:29;;;;;;;;;;;;;;;;;;5092124;28;19959;-69
2023/09/07 12:11:55;;;;;;;;;;;;;;;;;;5092215;28;19974;-70
2023/09/07 12:14:22;;;;;;;;;;;;;;;;;;5091836;28;19997;-70
2023/09/07 12:16:48;;;;;;;;;;;;;;;;;;5091216;28;19912;-70
2023/09/07 12:19:14;;;;;;;;;;;;;;;;;;5091756;28;19962;-69
2023/09/07 12:21:41;;;;;;;;;;;;;;;;;;5092011;28;19908;-70
2023/09/07 12:24:07;;;;;;;;;;;;;;;;;;5091747;28;19924;-71
2023/09/07 12:26:33;;;;;;;;;;;;;;;;;;5092252;28;20003;-70
2023/09/07 12:29:00;;;;;;;;;;;;;;;;;;5091948;28;19951;-69
2023/09/07 12:31:26;;;;;;;;;;;;;;;;;;5091260;28;19969;-70
2023/09/07 12:33:52;;;;;;;;;;;;;;;;;;5091269;28;20373;-69
2023/09/07 12:36:18;;;;;;;;;;;;;;;;;;5091870;28;20586;-69
2023/09/07 12:38:44;;;;;;;;;;;;;;;;;;5091771;28;19908;-70
2023/09/07 12:41:10;;;;;;;;;;;;;;;;;;5091239;28;19909;-70
2023/09/07 12:43:35;;;;;;;;;;;;;;;;;;5091356;28;19950;-70
2023/09/07 12:46:01;;;;;;;;;;;;;;;;;;5091547;28;20332;-70
2023/09/07 12:48:27;;;;;;;;;;;;;;;;;;5091051;28;20053;-71
2023/09/07 12:50:53;;;;;;;;;;;;;;;;;;5091655;28;19995;-69
2023/09/07 12:53:19;;;;;;;;;;;;;;;;;;5091357;28;19997;-70
2023/09/07 12:55:45;;;;;;;;;;;;;;;;;;5090974;28;19950;-69
2023/09/07 12:58:11;;;;;;;;;;;;;;;;;;5091338;28;20044;-69
2023/09/07 13:00:37;;;;;;;;;;;;;;;;;;5091154;28;19908;-70
2023/09/07 13:03:03;;;;;;;;;;;;;;;;;;5090174;28;19908;-69
2023/09/07 13:05:29;;;;;;;;;;;;;;;;;;5091130;28;19982;-70
2023/09/07 13:07:57;;;;;;;;;;;;;;;;;;5091349;28;20476;-70
2023/09/07 13:10:24;;;;;;;;;;;;;;;;;;5091133;28;20251;-70
2023/09/07 13:12:50;;;;;;;;;;;;;;;;;;5090465;28;19962;-70
2023/09/07 13:15:16;;;;;;;;;;;;;;;;;;5091022;28;19951;-71
2023/09/07 13:17:42;;;;;;;;;;;;;;;;;;5090928;28;20001;-70
2023/09/07 13:20:08;;;;;;;;;;;;;;;;;;5090582;28;19947;-70
2023/09/07 13:22:34;;;;;;;;;;;;;;;;;;5089929;28;20088;-70
2023/09/07 13:25:01;;;;;;;;;;;;;;;;;;5072437;28;20389;-71
2023/09/07 13:27:27;;;;;;;;;;;;;;;;;;5090454;28;19914;-70
2023/09/07 13:29:53;;;;;;;;;;;;;;;;;;5089452;28;20300;-71
2023/09/07 13:32:19;;;;;;;;;;;;;;;;;;5090149;28;19908;-71
2023/09/07 13:34:45;;;;;;;;;;;;;;;;;;5090559;28;20377;-71
2023/09/07 13:37:11;;;;;;;;;;;;;;;;;;5090261;28;19991;-70
2023/09/07 13:39:37;;;;;;;;;;;;;;;;;;5072454;28;20405;-71
2023/09/07 13:42:03;;;;;;;;;;;;;;;;;;5090175;28;19912;-71
2023/09/07 13:44:30;;;;;;;;;;;;;;;;;;5090169;28;20006;-70
2023/09/07 13:46:56;;;;;;;;;;;;;;;;;;5072164;28;19920;-70
2023/09/07 13:49:22;;;;;;;;;;;;;;;;;;5090264;28;19939;-70
2023/09/07 13:51:47;;;;;;;;;;;;;;;;;;5090253;28;19991;-69
2023/09/07 13:54:13;;;;;;;;;;;;;;;;;;5089487;28;19997;-70
2023/09/07 13:56:42;;;;;;;;;;;;;;;;;;5090500;28;19950;-70
2023/09/07 13:59:08;;;;;;;;;;;;;;;;;;5071554;28;19908;-71
2023/09/07 14:01:34;;;;;;;;;;;;;;;;;;5090048;28;19912;-70
2023/09/07 14:04:00;;;;;;;;;;;;;;;;;;5090489;28;20413;-71
2023/09/07 14:06:26;;;;;;;;;;;;;;;;;;5089989;28;19923;-70
2023/09/07 14:08:53;;;;;;;;;;;;;;;;;;5090362;28;20314;-70
2023/09/07 14:11:18;;;;;;;;;;;;;;;;;;5089386;28;19908;-68
2023/09/07 14:13:46;;;;;;;;;;;;;;;;;;5089430;28;19914;-71
2023/09/07 14:16:13;;;;;;;;;;;;;;;;;;5089718;28;20338;-70
2023/09/07 14:18:40;;;;;;;;;;;;;;;;;;5090251;28;19935;-68
2023/09/07 14:21:06;;;;;;;;;;;;;;;;;;5089802;28;19915;-70
2023/09/07 14:23:32;;;;;;;;;;;;;;;;;;5089307;28;19924;-71
2023/09/07 14:25:58;;;;;;;;;;;;;;;;;;5089981;28;19958;-70
2023/09/07 14:28:24;;;;;;;;;;;;;;;;;;5089374;28;19909;-70
2023/09/07 14:30:53;;;;;;;;;;;;;;;;;;5089893;28;19955;-69
2023/09/07 14:33:19;;;;;;;;;;;;;;;;;;5090045;28;20011;-69
2023/09/07 14:35:46;;;;;;;;;;;;;;;;;;5089424;28;19915;-69
2023/09/07 14:38:12;;;;;;;;;;;;;;;;;;5089202;28;19934;-70
2023/09/07 14:40:38;;;;;;;;;;;;;;;;;;5091421;28;19915;-69
2023/09/07 14:43:05;;;;;;;;;;;;;;;;;;5093450;28;19908;-70
2023/09/07 14:45:31;;;;;;;;;;;;;;;;;;5092633;28;20377;-70
2023/09/07 14:47:57;;;;;;;;;;;;;;;;;;5091974;28;19912;-69
2023/09/07 14:50:23;;;;;;;;;;;;;;;;;;5093198;28;19912;-69
2023/09/07 14:52:49;;;;;;;;;;;;;;;;;;5093424;28;19958;-70
2023/09/07 14:55:15;;;;;;;;;;;;;;;;;;5093795;28;19951;-71
2023/09/07 14:57:41;;;;;;;;;;;;;;;;;;5092532;28;19916;-70
2023/09/07 15:00:07;;;;;;;;;;;;;;;;;;5091631;28;20020;-70
2023/09/07 15:02:33;;;;;;;;;;;;;;;;;;5091232;28;19947;-70
2023/09/07 15:04:59;;;;;;;;;;;;;;;;;;5091875;28;19923;-69
2023/09/07 15:07:25;;;;;;;;;;;;;;;;;;5091189;28;20338;-69
2023/09/07 15:09:51;;;;;;;;;;;;;;;;;;5091018;28;20381;-70
2023/09/07 15:12:17;;;;;;;;;;;;;;;;;;5090227;28;20010;-70
2023/09/07 15:14:46;;;;;;;;;;;;;;;;;;5093241;28;19987;-70
2023/09/07 15:17:12;;;;;;;;;;;;;;;;;;5074900;28;20600;-70
2023/09/07 15:19:38;;;;;;;;;;;;;;;;;;5093270;28;20309;-69
2023/09/07 15:22:04;;;;;;;;;;;;;;;;;;5092583;28;20029;-69
2023/09/07 15:24:30;;;;;;;;;;;;;;;;;;5092325;28;19974;-70
2023/09/07 15:26:56;;;;;;;;;;;;;;;;;;5092305;28;20375;-70
2023/09/07 15:29:22;;;;;;;;;;;;;;;;;;5093769;28;20357;-69
2023/09/07 15:31:50;;;;;;;;;;;;;;;;;;5093859;28;20003;-70
2023/09/07 15:34:16;;;;;;;;;;;;;;;;;;5094688;28;19919;-69
2023/09/07 15:36:45;;;;;;;;;;;;;;;;;;5094766;28;19951;-69
2023/09/07 15:39:10;;;;;;;;;;;;;;;;;;5093900;28;19944;-70
2023/09/07 15:41:37;;;;;;;;;;;;;;;;;;5094091;28;19950;-70
2023/09/07 15:44:03;;;;;;;;;;;;;;;;;;5093374;28;19908;-69
2023/09/07 15:46:29;;;;;;;;;;;;;;;;;;5094267;28;20004;-69
2023/09/07 15:48:55;;;;;;;;;;;;;;;;;;5094318;28;19912;-69
2023/09/07 15:51:21;;;;;;;;;;;;;;;;;;5096962;28;19939;-69
2023/09/07 15:53:47;;;;;;;;;;;;;;;;;;5095079;28;19908;-72
2023/09/07 15:56:13;;;;;;;;;;;;;;;;;;5096215;28;19908;-68
2023/09/07 15:58:39;;;;;;;;;;;;;;;;;;5098172;28;19908;-70
2023/09/07 16:01:05;;;;;;;;;;;;;;;;;;5098811;28;19905;-68
2023/09/07 16:03:32;;;;;;;;;;;;;;;;;;5094169;28;19908;-69
2023/09/07 16:05:58;;;;;;;;;;;;;;;;;;5093510;28;20366;-69
2023/09/07 16:08:26;;;;;;;;;;;;;;;;;;5092998;28;19922;-69
2023/09/07 16:10:52;;;;;;;;;;;;;;;;;;5094123;28;19915;-69
2023/09/07 16:13:18;;;;;;;;;;;;;;;;;;5094953;28;19934;-69
2023/09/07 16:15:44;;;;;;;;;;;;;;;;;;5092007;28;19948;-69
2023/09/07 16:18:10;;;;;;;;;;;;;;;;;;5091863;28;19990;-70
2023/09/07 16:20:36;;;;;;;;;;;;;;;;;;5092022;28;20280;-70
2023/09/07 16:23:02;;;;;;;;;;;;;;;;;;5091424;28;19908;-70
2023/09/07 16:25:28;;;;;;;;;;;;;;;;;;5092056;28;20060;-68
2023/09/07 16:27:55;;;;;;;;;;;;;;;;;;5092272;28;19908;-69
2023/09/07 16:30:21;;;;;;;;;;;;;;;;;;5091635;28;19912;-69
2023/09/07 16:32:47;;;;;;;;;;;;;;;;;;5093373;28;19914;-69
2023/09/07 16:35:13;;;;;;;;;;;;;;;;;;5093256;28;20003;-70
2023/09/07 16:37:40;;;;;;;;;;;;;;;;;;5093075;28;20019;-69